sensor_id;sensor_type;location;lat;lon;timestamp;P1;durP1;ratioP1;P2;durP2;ratioP2
15595;SDS011;7898;48.658;9.068;2022-12-07T00:01:33;12.73;;;8.33;;
15595;SDS011;7898;48.658;9.068;2022-12-07T00:04:02;10.30;;;7.30;;
15595;SDS011;7898;48.658;9.068;2022-12-07T00:06:30;10.90;;;7.60;;
15595;SDS011;7898;48.658;9.068;2022-12-07T00:08:57;13.80;;;7.90;;
15595;SDS011;7898;48.658;9.068;2022-12-07T00:11:24;12.17;;;7.50;;
15595;SDS011;7898;48.658;9.068;2022-12-07T00:13:53;12.77;;;8.03;;
15595;SDS011;7898;48.658;9.068;2022-12-07T00:16:22;12.53;;;8.20;;
15595;SDS011;7898;48.658;9.068;2022-12-07T00:18:51;10.80;;;7.57;;
15595;SDS011;7898;48.658;9.068;2022-12-07T00:21:19;16.23;;;8.67;;
15595;SDS011;7898;48.658;9.068;2022-12-07T00:23:48;10.90;;;6.70;;
15595;SDS011;7898;48.658;9.068;2022-12-07T00:26:17;11.70;;;7.53;;
15595;SDS011;7898;48.658;9.068;2022-12-07T00:28:45;14.73;;;7.57;;
15595;SDS011;7898;48.658;9.068;2022-12-07T00:31:14;12.87;;;7.03;;
15595;SDS011;7898;48.658;9.068;2022-12-07T00:33:43;12.00;;;7.07;;
15595;SDS011;7898;48.658;9.068;2022-12-07T00:36:11;13.07;;;7.33;;
15595;SDS011;7898;48.658;9.068;2022-12-07T00:38:39;10.80;;;7.40;;
15595;SDS011;7898;48.658;9.068;2022-12-07T00:41:07;13.83;;;7.33;;
15595;SDS011;7898;48.658;9.068;2022-12-07T00:43:36;12.10;;;7.20;;
15595;SDS011;7898;48.658;9.068;2022-12-07T00:46:03;13.10;;;7.87;;
15595;SDS011;7898;48.658;9.068;2022-12-07T00:48:32;12.73;;;7.40;;
15595;SDS011;7898;48.658;9.068;2022-12-07T00:50:59;9.73;;;6.90;;
15595;SDS011;7898;48.658;9.068;2022-12-07T00:53:26;13.47;;;7.73;;
15595;SDS011;7898;48.658;9.068;2022-12-07T00:55:54;13.90;;;7.57;;
15595;SDS011;7898;48.658;9.068;2022-12-07T00:58:21;12.63;;;7.97;;
15595;SDS011;7898;48.658;9.068;2022-12-07T01:00:48;14.40;;;7.73;;
15595;SDS011;7898;48.658;9.068;2022-12-07T01:03:16;11.37;;;8.00;;
15595;SDS011;7898;48.658;9.068;2022-12-07T01:05:52;11.57;;;7.57;;
15595;SDS011;7898;48.658;9.068;2022-12-07T01:08:19;14.87;;;7.43;;
15595;SDS011;7898;48.658;9.068;2022-12-07T01:10:47;12.67;;;8.60;;
15595;SDS011;7898;48.658;9.068;2022-12-07T01:13:14;14.43;;;8.70;;
15595;SDS011;7898;48.658;9.068;2022-12-07T01:15:42;11.00;;;7.50;;
15595;SDS011;7898;48.658;9.068;2022-12-07T01:18:10;12.33;;;7.63;;
15595;SDS011;7898;48.658;9.068;2022-12-07T01:20:37;12.53;;;8.70;;
15595;SDS011;7898;48.658;9.068;2022-12-07T01:23:05;14.97;;;8.50;;
15595;SDS011;7898;48.658;9.068;2022-12-07T01:25:32;12.33;;;7.97;;
15595;SDS011;7898;48.658;9.068;2022-12-07T01:27:59;13.20;;;8.00;;
15595;SDS011;7898;48.658;9.068;2022-12-07T01:30:26;12.60;;;8.20;;
15595;SDS011;7898;48.658;9.068;2022-12-07T01:32:53;12.47;;;8.67;;
15595;SDS011;7898;48.658;9.068;2022-12-07T01:35:20;10.70;;;8.00;;
15595;SDS011;7898;48.658;9.068;2022-12-07T01:37:47;14.07;;;8.10;;
15595;SDS011;7898;48.658;9.068;2022-12-07T01:40:15;13.13;;;8.07;;
15595;SDS011;7898;48.658;9.068;2022-12-07T01:42:42;11.60;;;8.43;;
15595;SDS011;7898;48.658;9.068;2022-12-07T01:48:05;12.10;;;8.50;;
15595;SDS011;7898;48.658;9.068;2022-12-07T01:50:34;11.10;;;8.30;;
15595;SDS011;7898;48.658;9.068;2022-12-07T01:53:02;13.83;;;8.40;;
15595;SDS011;7898;48.658;9.068;2022-12-07T01:55:32;13.00;;;8.87;;
15595;SDS011;7898;48.658;9.068;2022-12-07T01:58:02;13.13;;;8.87;;
15595;SDS011;7898;48.658;9.068;2022-12-07T02:00:29;12.57;;;9.00;;
15595;SDS011;7898;48.658;9.068;2022-12-07T02:02:57;11.37;;;8.03;;
15595;SDS011;7898;48.658;9.068;2022-12-07T02:05:29;13.47;;;8.07;;
15595;SDS011;7898;48.658;9.068;2022-12-07T02:07:57;11.53;;;8.73;;
15595;SDS011;7898;48.658;9.068;2022-12-07T02:10:25;15.93;;;9.60;;
15595;SDS011;7898;48.658;9.068;2022-12-07T02:12:55;13.03;;;9.20;;
15595;SDS011;7898;48.658;9.068;2022-12-07T02:15:27;13.83;;;9.00;;
15595;SDS011;7898;48.658;9.068;2022-12-07T02:18:01;15.40;;;9.07;;
15595;SDS011;7898;48.658;9.068;2022-12-07T02:20:34;13.67;;;9.07;;
15595;SDS011;7898;48.658;9.068;2022-12-07T02:26:22;14.63;;;8.90;;
15595;SDS011;7898;48.658;9.068;2022-12-07T02:29:27;12.47;;;7.87;;
15595;SDS011;7898;48.658;9.068;2022-12-07T02:32:00;15.10;;;9.00;;
15595;SDS011;7898;48.658;9.068;2022-12-07T02:34:35;13.90;;;8.93;;
15595;SDS011;7898;48.658;9.068;2022-12-07T02:37:09;14.97;;;8.63;;
15595;SDS011;7898;48.658;9.068;2022-12-07T02:39:42;12.90;;;8.60;;
15595;SDS011;7898;48.658;9.068;2022-12-07T02:42:15;11.97;;;7.70;;
15595;SDS011;7898;48.658;9.068;2022-12-07T02:44:48;11.13;;;8.03;;
15595;SDS011;7898;48.658;9.068;2022-12-07T02:47:16;13.53;;;7.90;;
15595;SDS011;7898;48.658;9.068;2022-12-07T02:49:44;12.67;;;8.43;;
15595;SDS011;7898;48.658;9.068;2022-12-07T02:52:12;15.13;;;9.20;;
15595;SDS011;7898;48.658;9.068;2022-12-07T02:54:38;14.07;;;8.80;;
15595;SDS011;7898;48.658;9.068;2022-12-07T02:57:09;12.50;;;8.20;;
15595;SDS011;7898;48.658;9.068;2022-12-07T02:59:50;15.87;;;8.87;;
15595;SDS011;7898;48.658;9.068;2022-12-07T03:02:31;12.77;;;8.63;;
15595;SDS011;7898;48.658;9.068;2022-12-07T03:05:11;12.93;;;8.90;;
15595;SDS011;7898;48.658;9.068;2022-12-07T03:07:48;13.67;;;9.20;;
15595;SDS011;7898;48.658;9.068;2022-12-07T03:10:28;13.10;;;9.10;;
15595;SDS011;7898;48.658;9.068;2022-12-07T03:13:02;17.67;;;8.90;;
15595;SDS011;7898;48.658;9.068;2022-12-07T03:15:39;12.97;;;8.77;;
15595;SDS011;7898;48.658;9.068;2022-12-07T03:18:10;14.10;;;9.77;;
15595;SDS011;7898;48.658;9.068;2022-12-07T03:20:41;15.07;;;9.60;;
15595;SDS011;7898;48.658;9.068;2022-12-07T03:23:11;14.60;;;9.40;;
15595;SDS011;7898;48.658;9.068;2022-12-07T03:25:42;14.33;;;9.07;;
15595;SDS011;7898;48.658;9.068;2022-12-07T03:28:13;15.60;;;9.47;;
15595;SDS011;7898;48.658;9.068;2022-12-07T03:30:47;16.53;;;10.50;;
15595;SDS011;7898;48.658;9.068;2022-12-07T03:33:20;17.30;;;9.50;;
15595;SDS011;7898;48.658;9.068;2022-12-07T03:35:51;14.27;;;8.73;;
15595;SDS011;7898;48.658;9.068;2022-12-07T03:38:25;13.80;;;9.30;;
15595;SDS011;7898;48.658;9.068;2022-12-07T03:40:57;15.00;;;9.43;;
15595;SDS011;7898;48.658;9.068;2022-12-07T03:43:27;12.67;;;8.97;;
15595;SDS011;7898;48.658;9.068;2022-12-07T03:45:58;13.63;;;9.03;;
15595;SDS011;7898;48.658;9.068;2022-12-07T03:48:33;13.77;;;8.63;;
15595;SDS011;7898;48.658;9.068;2022-12-07T03:51:06;12.20;;;7.83;;
15595;SDS011;7898;48.658;9.068;2022-12-07T03:53:46;12.97;;;8.30;;
15595;SDS011;7898;48.658;9.068;2022-12-07T03:56:19;13.80;;;9.33;;
15595;SDS011;7898;48.658;9.068;2022-12-07T03:58:47;14.17;;;8.37;;
15595;SDS011;7898;48.658;9.068;2022-12-07T04:01:17;12.50;;;9.07;;
15595;SDS011;7898;48.658;9.068;2022-12-07T04:03:44;13.70;;;8.73;;
15595;SDS011;7898;48.658;9.068;2022-12-07T04:06:11;17.10;;;9.00;;
15595;SDS011;7898;48.658;9.068;2022-12-07T04:08:38;13.70;;;8.77;;
15595;SDS011;7898;48.658;9.068;2022-12-07T04:11:04;14.73;;;9.50;;
15595;SDS011;7898;48.658;9.068;2022-12-07T04:13:31;13.43;;;8.97;;
15595;SDS011;7898;48.658;9.068;2022-12-07T04:16:20;15.00;;;9.50;;
15595;SDS011;7898;48.658;9.068;2022-12-07T04:18:47;13.07;;;8.43;;
15595;SDS011;7898;48.658;9.068;2022-12-07T04:21:14;15.33;;;9.00;;
15595;SDS011;7898;48.658;9.068;2022-12-07T04:23:41;10.87;;;7.87;;
15595;SDS011;7898;48.658;9.068;2022-12-07T04:26:08;12.50;;;8.20;;
15595;SDS011;7898;48.658;9.068;2022-12-07T04:28:35;12.97;;;8.33;;
15595;SDS011;7898;48.658;9.068;2022-12-07T04:31:01;11.70;;;8.43;;
15595;SDS011;7898;48.658;9.068;2022-12-07T04:33:30;13.97;;;8.67;;
15595;SDS011;7898;48.658;9.068;2022-12-07T04:35:56;15.50;;;9.53;;
15595;SDS011;7898;48.658;9.068;2022-12-07T04:38:23;12.67;;;8.43;;
15595;SDS011;7898;48.658;9.068;2022-12-07T04:40:50;16.57;;;8.20;;
15595;SDS011;7898;48.658;9.068;2022-12-07T04:43:17;11.77;;;8.17;;
15595;SDS011;7898;48.658;9.068;2022-12-07T04:45:45;16.33;;;8.43;;
15595;SDS011;7898;48.658;9.068;2022-12-07T04:48:13;12.63;;;8.10;;
15595;SDS011;7898;48.658;9.068;2022-12-07T04:50:41;12.23;;;8.87;;
15595;SDS011;7898;48.658;9.068;2022-12-07T04:53:08;14.37;;;9.20;;
15595;SDS011;7898;48.658;9.068;2022-12-07T04:55:35;14.70;;;8.87;;
15595;SDS011;7898;48.658;9.068;2022-12-07T04:58:02;13.77;;;8.70;;
15595;SDS011;7898;48.658;9.068;2022-12-07T05:00:29;12.00;;;8.40;;
15595;SDS011;7898;48.658;9.068;2022-12-07T05:02:56;12.97;;;8.93;;
15595;SDS011;7898;48.658;9.068;2022-12-07T05:05:23;15.63;;;9.10;;
15595;SDS011;7898;48.658;9.068;2022-12-07T05:07:51;13.07;;;8.73;;
15595;SDS011;7898;48.658;9.068;2022-12-07T05:10:18;18.17;;;9.90;;
15595;SDS011;7898;48.658;9.068;2022-12-07T05:12:45;17.20;;;9.40;;
15595;SDS011;7898;48.658;9.068;2022-12-07T05:15:12;15.57;;;9.13;;
15595;SDS011;7898;48.658;9.068;2022-12-07T05:17:39;18.53;;;10.27;;
15595;SDS011;7898;48.658;9.068;2022-12-07T05:20:06;15.87;;;9.23;;
15595;SDS011;7898;48.658;9.068;2022-12-07T05:22:34;15.33;;;9.93;;
15595;SDS011;7898;48.658;9.068;2022-12-07T05:25:03;15.80;;;10.90;;
15595;SDS011;7898;48.658;9.068;2022-12-07T05:27:30;14.03;;;9.50;;
15595;SDS011;7898;48.658;9.068;2022-12-07T05:29:57;13.23;;;8.90;;
15595;SDS011;7898;48.658;9.068;2022-12-07T05:32:23;15.57;;;8.87;;
15595;SDS011;7898;48.658;9.068;2022-12-07T05:34:50;14.80;;;9.03;;
15595;SDS011;7898;48.658;9.068;2022-12-07T05:37:19;13.27;;;9.53;;
15595;SDS011;7898;48.658;9.068;2022-12-07T05:39:46;15.67;;;9.57;;
15595;SDS011;7898;48.658;9.068;2022-12-07T05:42:14;13.73;;;9.83;;
15595;SDS011;7898;48.658;9.068;2022-12-07T05:44:42;17.50;;;11.20;;
15595;SDS011;7898;48.658;9.068;2022-12-07T05:47:10;20.97;;;11.80;;
15595;SDS011;7898;48.658;9.068;2022-12-07T05:49:38;20.33;;;11.93;;
15595;SDS011;7898;48.658;9.068;2022-12-07T05:52:05;22.37;;;12.73;;
15595;SDS011;7898;48.658;9.068;2022-12-07T05:54:32;22.73;;;13.27;;
15595;SDS011;7898;48.658;9.068;2022-12-07T05:56:59;21.23;;;12.83;;
15595;SDS011;7898;48.658;9.068;2022-12-07T05:59:27;15.93;;;9.80;;
15595;SDS011;7898;48.658;9.068;2022-12-07T06:01:55;15.03;;;8.97;;
15595;SDS011;7898;48.658;9.068;2022-12-07T06:04:23;12.63;;;8.23;;
15595;SDS011;7898;48.658;9.068;2022-12-07T06:06:51;17.37;;;11.03;;
15595;SDS011;7898;48.658;9.068;2022-12-07T06:09:19;16.27;;;12.10;;
15595;SDS011;7898;48.658;9.068;2022-12-07T06:11:47;17.63;;;11.33;;
15595;SDS011;7898;48.658;9.068;2022-12-07T06:14:32;14.77;;;7.90;;
15595;SDS011;7898;48.658;9.068;2022-12-07T06:16:59;14.03;;;10.60;;
15595;SDS011;7898;48.658;9.068;2022-12-07T06:19:26;18.50;;;14.07;;
15595;SDS011;7898;48.658;9.068;2022-12-07T06:21:53;23.63;;;16.40;;
15595;SDS011;7898;48.658;9.068;2022-12-07T06:24:21;17.23;;;11.63;;
15595;SDS011;7898;48.658;9.068;2022-12-07T06:26:48;13.50;;;9.87;;
15595;SDS011;7898;48.658;9.068;2022-12-07T06:29:15;15.97;;;10.07;;
15595;SDS011;7898;48.658;9.068;2022-12-07T06:31:44;15.50;;;9.40;;
15595;SDS011;7898;48.658;9.068;2022-12-07T06:34:12;12.80;;;8.70;;
15595;SDS011;7898;48.658;9.068;2022-12-07T06:36:40;13.13;;;8.37;;
15595;SDS011;7898;48.658;9.068;2022-12-07T06:39:07;17.23;;;10.53;;
15595;SDS011;7898;48.658;9.068;2022-12-07T06:41:35;13.93;;;9.57;;
15595;SDS011;7898;48.658;9.068;2022-12-07T06:44:02;14.13;;;9.40;;
15595;SDS011;7898;48.658;9.068;2022-12-07T06:46:29;13.50;;;8.47;;
15595;SDS011;7898;48.658;9.068;2022-12-07T06:48:58;13.70;;;8.53;;
15595;SDS011;7898;48.658;9.068;2022-12-07T06:51:25;13.07;;;8.07;;
15595;SDS011;7898;48.658;9.068;2022-12-07T06:53:52;13.63;;;8.67;;
15595;SDS011;7898;48.658;9.068;2022-12-07T06:56:19;13.93;;;8.40;;
15595;SDS011;7898;48.658;9.068;2022-12-07T06:58:46;14.37;;;8.67;;
15595;SDS011;7898;48.658;9.068;2022-12-07T07:01:13;13.87;;;8.90;;
15595;SDS011;7898;48.658;9.068;2022-12-07T07:03:43;15.50;;;9.17;;
15595;SDS011;7898;48.658;9.068;2022-12-07T07:06:12;14.00;;;9.10;;
15595;SDS011;7898;48.658;9.068;2022-12-07T07:08:40;15.63;;;9.93;;
15595;SDS011;7898;48.658;9.068;2022-12-07T07:11:07;15.23;;;9.60;;
15595;SDS011;7898;48.658;9.068;2022-12-07T07:13:34;17.77;;;10.07;;
15595;SDS011;7898;48.658;9.068;2022-12-07T07:16:02;20.77;;;12.67;;
15595;SDS011;7898;48.658;9.068;2022-12-07T07:18:29;22.27;;;13.73;;
15595;SDS011;7898;48.658;9.068;2022-12-07T07:20:56;25.47;;;15.27;;
15595;SDS011;7898;48.658;9.068;2022-12-07T07:23:25;28.90;;;15.57;;
15595;SDS011;7898;48.658;9.068;2022-12-07T07:25:52;21.23;;;12.60;;
15595;SDS011;7898;48.658;9.068;2022-12-07T07:28:19;27.87;;;15.13;;
15595;SDS011;7898;48.658;9.068;2022-12-07T07:30:46;46.43;;;22.97;;
15595;SDS011;7898;48.658;9.068;2022-12-07T07:33:13;42.93;;;23.37;;
15595;SDS011;7898;48.658;9.068;2022-12-07T07:35:40;41.87;;;24.93;;
15595;SDS011;7898;48.658;9.068;2022-12-07T07:38:07;25.07;;;16.53;;
15595;SDS011;7898;48.658;9.068;2022-12-07T07:40:36;27.47;;;17.23;;
15595;SDS011;7898;48.658;9.068;2022-12-07T07:43:02;21.90;;;13.57;;
15595;SDS011;7898;48.658;9.068;2022-12-07T07:45:29;19.43;;;13.80;;
15595;SDS011;7898;48.658;9.068;2022-12-07T07:47:56;18.77;;;12.50;;
15595;SDS011;7898;48.658;9.068;2022-12-07T07:50:23;18.00;;;11.20;;
15595;SDS011;7898;48.658;9.068;2022-12-07T07:52:50;16.43;;;10.37;;
15595;SDS011;7898;48.658;9.068;2022-12-07T07:55:17;17.17;;;10.50;;
15595;SDS011;7898;48.658;9.068;2022-12-07T07:57:45;16.73;;;11.30;;
15595;SDS011;7898;48.658;9.068;2022-12-07T08:00:13;17.37;;;10.60;;
15595;SDS011;7898;48.658;9.068;2022-12-07T08:02:41;16.23;;;9.77;;
15595;SDS011;7898;48.658;9.068;2022-12-07T08:05:09;22.30;;;13.40;;
15595;SDS011;7898;48.658;9.068;2022-12-07T08:07:36;17.17;;;10.97;;
15595;SDS011;7898;48.658;9.068;2022-12-07T08:10:04;16.70;;;11.03;;
15595;SDS011;7898;48.658;9.068;2022-12-07T08:12:35;15.80;;;9.80;;
15595;SDS011;7898;48.658;9.068;2022-12-07T08:15:04;15.23;;;9.90;;
15595;SDS011;7898;48.658;9.068;2022-12-07T08:17:31;16.40;;;9.20;;
15595;SDS011;7898;48.658;9.068;2022-12-07T08:19:59;13.90;;;9.90;;
15595;SDS011;7898;48.658;9.068;2022-12-07T08:22:26;13.80;;;7.93;;
15595;SDS011;7898;48.658;9.068;2022-12-07T08:24:53;11.50;;;7.03;;
15595;SDS011;7898;48.658;9.068;2022-12-07T08:27:19;12.10;;;7.83;;
15595;SDS011;7898;48.658;9.068;2022-12-07T08:29:51;24.63;;;11.47;;
15595;SDS011;7898;48.658;9.068;2022-12-07T08:32:20;20.20;;;11.37;;
15595;SDS011;7898;48.658;9.068;2022-12-07T08:34:46;16.63;;;8.73;;
15595;SDS011;7898;48.658;9.068;2022-12-07T08:37:14;15.87;;;9.33;;
15595;SDS011;7898;48.658;9.068;2022-12-07T08:39:40;13.37;;;9.23;;
15595;SDS011;7898;48.658;9.068;2022-12-07T08:42:07;11.53;;;7.97;;
15595;SDS011;7898;48.658;9.068;2022-12-07T08:44:34;13.33;;;8.87;;
15595;SDS011;7898;48.658;9.068;2022-12-07T08:47:02;13.23;;;9.20;;
15595;SDS011;7898;48.658;9.068;2022-12-07T08:49:33;13.13;;;8.43;;
15595;SDS011;7898;48.658;9.068;2022-12-07T08:52:04;10.87;;;7.20;;
15595;SDS011;7898;48.658;9.068;2022-12-07T08:54:32;10.90;;;7.20;;
15595;SDS011;7898;48.658;9.068;2022-12-07T08:57:01;13.33;;;9.53;;
15595;SDS011;7898;48.658;9.068;2022-12-07T08:59:29;10.60;;;7.47;;
15595;SDS011;7898;48.658;9.068;2022-12-07T09:01:57;12.10;;;7.40;;
15595;SDS011;7898;48.658;9.068;2022-12-07T09:04:23;10.20;;;7.23;;
15595;SDS011;7898;48.658;9.068;2022-12-07T09:06:52;9.67;;;7.30;;
15595;SDS011;7898;48.658;9.068;2022-12-07T09:09:20;10.40;;;7.10;;
15595;SDS011;7898;48.658;9.068;2022-12-07T09:11:47;10.83;;;7.00;;
15595;SDS011;7898;48.658;9.068;2022-12-07T09:14:14;10.97;;;7.17;;
15595;SDS011;7898;48.658;9.068;2022-12-07T09:16:42;10.40;;;6.70;;
15595;SDS011;7898;48.658;9.068;2022-12-07T09:19:09;9.40;;;6.70;;
15595;SDS011;7898;48.658;9.068;2022-12-07T09:21:35;11.37;;;6.60;;
15595;SDS011;7898;48.658;9.068;2022-12-07T09:24:04;10.60;;;6.97;;
15595;SDS011;7898;48.658;9.068;2022-12-07T09:26:31;8.63;;;6.03;;
15595;SDS011;7898;48.658;9.068;2022-12-07T09:29:00;8.13;;;6.17;;
15595;SDS011;7898;48.658;9.068;2022-12-07T09:31:28;9.43;;;6.40;;
15595;SDS011;7898;48.658;9.068;2022-12-07T09:33:55;11.90;;;8.30;;
15595;SDS011;7898;48.658;9.068;2022-12-07T09:36:23;11.50;;;8.37;;
15595;SDS011;7898;48.658;9.068;2022-12-07T09:38:50;10.13;;;7.53;;
15595;SDS011;7898;48.658;9.068;2022-12-07T09:41:18;9.13;;;6.40;;
15595;SDS011;7898;48.658;9.068;2022-12-07T09:43:47;9.93;;;6.93;;
15595;SDS011;7898;48.658;9.068;2022-12-07T09:46:15;9.53;;;6.43;;
15595;SDS011;7898;48.658;9.068;2022-12-07T09:48:46;12.93;;;8.03;;
15595;SDS011;7898;48.658;9.068;2022-12-07T09:51:15;8.37;;;6.23;;
15595;SDS011;7898;48.658;9.068;2022-12-07T09:53:44;9.30;;;6.70;;
15595;SDS011;7898;48.658;9.068;2022-12-07T09:56:12;8.30;;;5.80;;
15595;SDS011;7898;48.658;9.068;2022-12-07T09:58:41;7.37;;;5.47;;
15595;SDS011;7898;48.658;9.068;2022-12-07T10:01:11;19.27;;;11.33;;
15595;SDS011;7898;48.658;9.068;2022-12-07T10:03:40;9.47;;;6.37;;
15595;SDS011;7898;48.658;9.068;2022-12-07T10:06:11;7.33;;;4.93;;
15595;SDS011;7898;48.658;9.068;2022-12-07T10:08:39;6.90;;;5.10;;
15595;SDS011;7898;48.658;9.068;2022-12-07T10:11:08;9.43;;;6.47;;
15595;SDS011;7898;48.658;9.068;2022-12-07T10:13:37;9.47;;;6.63;;
15595;SDS011;7898;48.658;9.068;2022-12-07T10:16:32;8.80;;;6.63;;
15595;SDS011;7898;48.658;9.068;2022-12-07T10:19:17;13.17;;;7.80;;
15595;SDS011;7898;48.658;9.068;2022-12-07T10:21:58;10.53;;;7.17;;
15595;SDS011;7898;48.658;9.068;2022-12-07T10:24:31;10.83;;;6.67;;
15595;SDS011;7898;48.658;9.068;2022-12-07T10:26:58;9.23;;;6.13;;
15595;SDS011;7898;48.658;9.068;2022-12-07T10:29:28;10.80;;;7.33;;
15595;SDS011;7898;48.658;9.068;2022-12-07T10:31:59;7.90;;;5.40;;
15595;SDS011;7898;48.658;9.068;2022-12-07T10:34:28;10.80;;;6.27;;
15595;SDS011;7898;48.658;9.068;2022-12-07T10:37:11;8.83;;;5.80;;
15595;SDS011;7898;48.658;9.068;2022-12-07T10:39:42;10.43;;;7.83;;
15595;SDS011;7898;48.658;9.068;2022-12-07T10:42:17;9.47;;;5.73;;
15595;SDS011;7898;48.658;9.068;2022-12-07T10:44:46;10.93;;;6.73;;
15595;SDS011;7898;48.658;9.068;2022-12-07T10:47:22;11.03;;;6.83;;
15595;SDS011;7898;48.658;9.068;2022-12-07T10:50:02;11.63;;;7.30;;
15595;SDS011;7898;48.658;9.068;2022-12-07T10:52:51;8.80;;;6.17;;
15595;SDS011;7898;48.658;9.068;2022-12-07T10:55:34;7.77;;;5.00;;
15595;SDS011;7898;48.658;9.068;2022-12-07T10:58:21;7.73;;;5.93;;
15595;SDS011;7898;48.658;9.068;2022-12-07T11:01:08;11.23;;;6.97;;
15595;SDS011;7898;48.658;9.068;2022-12-07T11:03:47;10.10;;;5.67;;
15595;SDS011;7898;48.658;9.068;2022-12-07T11:06:34;8.10;;;6.10;;
15595;SDS011;7898;48.658;9.068;2022-12-07T11:09:14;10.87;;;6.83;;
15595;SDS011;7898;48.658;9.068;2022-12-07T11:11:57;10.20;;;6.33;;
15595;SDS011;7898;48.658;9.068;2022-12-07T11:14:35;9.60;;;6.90;;
15595;SDS011;7898;48.658;9.068;2022-12-07T11:17:07;9.07;;;6.40;;
15595;SDS011;7898;48.658;9.068;2022-12-07T11:19:46;11.13;;;6.60;;
15595;SDS011;7898;48.658;9.068;2022-12-07T11:22:28;8.53;;;6.40;;
15595;SDS011;7898;48.658;9.068;2022-12-07T11:25:14;9.10;;;5.80;;
15595;SDS011;7898;48.658;9.068;2022-12-07T11:27:47;11.73;;;6.17;;
15595;SDS011;7898;48.658;9.068;2022-12-07T11:30:22;8.93;;;6.07;;
15595;SDS011;7898;48.658;9.068;2022-12-07T11:33:00;8.77;;;5.60;;
15595;SDS011;7898;48.658;9.068;2022-12-07T11:35:42;9.37;;;6.27;;
15595;SDS011;7898;48.658;9.068;2022-12-07T11:38:21;8.43;;;6.70;;
15595;SDS011;7898;48.658;9.068;2022-12-07T11:40:53;12.30;;;6.97;;
15595;SDS011;7898;48.658;9.068;2022-12-07T11:43:37;15.27;;;8.57;;
15595;SDS011;7898;48.658;9.068;2022-12-07T11:46:09;11.00;;;6.90;;
15595;SDS011;7898;48.658;9.068;2022-12-07T11:48:40;9.13;;;5.73;;
15595;SDS011;7898;48.658;9.068;2022-12-07T11:51:13;13.23;;;7.27;;
15595;SDS011;7898;48.658;9.068;2022-12-07T11:53:43;11.40;;;6.17;;
15595;SDS011;7898;48.658;9.068;2022-12-07T11:56:14;9.60;;;5.83;;
15595;SDS011;7898;48.658;9.068;2022-12-07T11:58:46;8.70;;;6.20;;
15595;SDS011;7898;48.658;9.068;2022-12-07T12:01:18;10.57;;;6.57;;
15595;SDS011;7898;48.658;9.068;2022-12-07T12:03:56;8.50;;;5.23;;
15595;SDS011;7898;48.658;9.068;2022-12-07T12:06:28;8.33;;;5.23;;
15595;SDS011;7898;48.658;9.068;2022-12-07T12:08:55;7.87;;;5.97;;
15595;SDS011;7898;48.658;9.068;2022-12-07T12:11:32;8.63;;;5.17;;
15595;SDS011;7898;48.658;9.068;2022-12-07T12:14:22;7.33;;;4.60;;
15595;SDS011;7898;48.658;9.068;2022-12-07T12:17:13;6.17;;;4.13;;
15595;SDS011;7898;48.658;9.068;2022-12-07T12:20:05;7.20;;;5.03;;
15595;SDS011;7898;48.658;9.068;2022-12-07T12:22:44;4.87;;;3.47;;
15595;SDS011;7898;48.658;9.068;2022-12-07T12:25:17;7.93;;;4.30;;
15595;SDS011;7898;48.658;9.068;2022-12-07T12:27:47;5.60;;;4.07;;
15595;SDS011;7898;48.658;9.068;2022-12-07T12:30:32;7.93;;;4.60;;
15595;SDS011;7898;48.658;9.068;2022-12-07T12:33:01;8.60;;;5.10;;
15595;SDS011;7898;48.658;9.068;2022-12-07T12:35:32;11.50;;;6.50;;
15595;SDS011;7898;48.658;9.068;2022-12-07T12:40:53;8.73;;;4.47;;
15595;SDS011;7898;48.658;9.068;2022-12-07T12:55:19;9.67;;;6.70;;
15595;SDS011;7898;48.658;9.068;2022-12-07T13:04:14;6.93;;;5.37;;
15595;SDS011;7898;48.658;9.068;2022-12-07T13:06:58;10.93;;;8.00;;
15595;SDS011;7898;48.658;9.068;2022-12-07T13:09:25;13.13;;;7.17;;
15595;SDS011;7898;48.658;9.068;2022-12-07T13:11:59;11.13;;;6.60;;
15595;SDS011;7898;48.658;9.068;2022-12-07T13:14:40;5.87;;;4.80;;
15595;SDS011;7898;48.658;9.068;2022-12-07T13:20:45;6.80;;;5.10;;
15595;SDS011;7898;48.658;9.068;2022-12-07T13:23:18;5.87;;;4.20;;
15595;SDS011;7898;48.658;9.068;2022-12-07T13:28:43;5.83;;;4.43;;
15595;SDS011;7898;48.658;9.068;2022-12-07T13:31:13;4.53;;;3.60;;
15595;SDS011;7898;48.658;9.068;2022-12-07T13:33:47;7.83;;;4.03;;
15595;SDS011;7898;48.658;9.068;2022-12-07T13:36:16;4.63;;;3.83;;
15595;SDS011;7898;48.658;9.068;2022-12-07T13:38:54;4.03;;;3.20;;
15595;SDS011;7898;48.658;9.068;2022-12-07T13:41:22;6.70;;;4.27;;
15595;SDS011;7898;48.658;9.068;2022-12-07T13:43:53;5.90;;;3.30;;
15595;SDS011;7898;48.658;9.068;2022-12-07T13:46:27;4.83;;;3.00;;
15595;SDS011;7898;48.658;9.068;2022-12-07T13:49:02;6.60;;;3.40;;
15595;SDS011;7898;48.658;9.068;2022-12-07T13:51:41;4.33;;;3.90;;
15595;SDS011;7898;48.658;9.068;2022-12-07T13:54:09;4.97;;;3.20;;
15595;SDS011;7898;48.658;9.068;2022-12-07T13:56:38;6.03;;;3.60;;
15595;SDS011;7898;48.658;9.068;2022-12-07T13:59:10;5.07;;;3.20;;
15595;SDS011;7898;48.658;9.068;2022-12-07T14:01:41;4.43;;;3.30;;
15595;SDS011;7898;48.658;9.068;2022-12-07T14:04:18;5.70;;;3.93;;
15595;SDS011;7898;48.658;9.068;2022-12-07T14:06:53;4.83;;;3.67;;
15595;SDS011;7898;48.658;9.068;2022-12-07T14:09:21;9.67;;;3.83;;
15595;SDS011;7898;48.658;9.068;2022-12-07T14:11:49;4.60;;;3.73;;
15595;SDS011;7898;48.658;9.068;2022-12-07T14:14:20;4.83;;;3.27;;
15595;SDS011;7898;48.658;9.068;2022-12-07T14:16:55;7.60;;;5.40;;
15595;SDS011;7898;48.658;9.068;2022-12-07T14:22:21;8.57;;;4.80;;
15595;SDS011;7898;48.658;9.068;2022-12-07T14:24:50;10.17;;;6.23;;
15595;SDS011;7898;48.658;9.068;2022-12-07T14:27:17;6.73;;;4.17;;
15595;SDS011;7898;48.658;9.068;2022-12-07T14:29:47;7.17;;;4.47;;
15595;SDS011;7898;48.658;9.068;2022-12-07T14:32:18;6.33;;;4.60;;
15595;SDS011;7898;48.658;9.068;2022-12-07T14:34:54;9.20;;;4.80;;
15595;SDS011;7898;48.658;9.068;2022-12-07T14:37:22;7.03;;;4.33;;
15595;SDS011;7898;48.658;9.068;2022-12-07T14:39:49;9.93;;;4.17;;
15595;SDS011;7898;48.658;9.068;2022-12-07T14:42:16;12.50;;;5.83;;
15595;SDS011;7898;48.658;9.068;2022-12-07T14:44:43;7.63;;;4.53;;
15595;SDS011;7898;48.658;9.068;2022-12-07T14:47:12;6.57;;;4.90;;
15595;SDS011;7898;48.658;9.068;2022-12-07T14:49:39;7.10;;;5.07;;
15595;SDS011;7898;48.658;9.068;2022-12-07T14:52:06;8.13;;;4.80;;
15595;SDS011;7898;48.658;9.068;2022-12-07T14:54:40;6.87;;;4.20;;
15595;SDS011;7898;48.658;9.068;2022-12-07T14:57:08;10.20;;;4.27;;
15595;SDS011;7898;48.658;9.068;2022-12-07T14:59:35;7.47;;;4.17;;
15595;SDS011;7898;48.658;9.068;2022-12-07T15:02:02;7.03;;;5.00;;
15595;SDS011;7898;48.658;9.068;2022-12-07T15:04:30;9.07;;;5.37;;
15595;SDS011;7898;48.658;9.068;2022-12-07T15:06:58;7.67;;;4.40;;
15595;SDS011;7898;48.658;9.068;2022-12-07T15:09:26;8.10;;;5.73;;
15595;SDS011;7898;48.658;9.068;2022-12-07T15:11:53;7.27;;;5.40;;
15595;SDS011;7898;48.658;9.068;2022-12-07T15:14:19;11.33;;;6.97;;
15595;SDS011;7898;48.658;9.068;2022-12-07T15:16:46;15.30;;;9.87;;
15595;SDS011;7898;48.658;9.068;2022-12-07T15:19:14;17.17;;;9.70;;
15595;SDS011;7898;48.658;9.068;2022-12-07T15:21:43;11.77;;;7.20;;
15595;SDS011;7898;48.658;9.068;2022-12-07T15:24:10;10.07;;;6.50;;
15595;SDS011;7898;48.658;9.068;2022-12-07T15:26:38;10.03;;;5.77;;
15595;SDS011;7898;48.658;9.068;2022-12-07T15:29:06;8.77;;;4.87;;
15595;SDS011;7898;48.658;9.068;2022-12-07T15:31:33;8.80;;;5.70;;
15595;SDS011;7898;48.658;9.068;2022-12-07T15:34:01;12.00;;;7.03;;
15595;SDS011;7898;48.658;9.068;2022-12-07T15:36:29;12.50;;;8.40;;
15595;SDS011;7898;48.658;9.068;2022-12-07T15:38:58;20.50;;;12.30;;
15595;SDS011;7898;48.658;9.068;2022-12-07T15:41:26;16.13;;;9.83;;
15595;SDS011;7898;48.658;9.068;2022-12-07T15:43:53;12.67;;;8.47;;
15595;SDS011;7898;48.658;9.068;2022-12-07T15:46:38;25.08;;;15.45;;